Time;durP1;ratioP1;P1;durP2;ratioP2;P2;SDS_P1;SDS_P2;PMS_P1;PMS_P2;Temp;Humidity;BMP_temperature;BMP_pressure;BME280_temperature;BME280_humidity;BME280_pressure;Samples;Min_cycle;Max_cycle;Signal;HPM_P1;HPM_P2
2022/08/24 00:00:21;;;;;;;4.13;4.00;;;16.40;99.90;;;;;;5122063;27;20704;-53
2022/08/24 00:02:49;;;;;;;4.43;4.30;;;16.30;99.90;;;;;;5125058;27;20203;-53
2022/08/24 00:05:16;;;;;;;4.60;4.40;;;16.30;99.90;;;;;;5121606;27;20234;-53
2022/08/24 00:07:43;;;;;;;4.87;4.57;;;16.20;99.90;;;;;;5126242;27;20203;-53
2022/08/24 00:10:12;;;;;;;3.40;3.20;;;16.20;99.90;;;;;;5133411;27;20191;-53
2022/08/24 00:12:40;;;;;;;3.93;3.83;;;16.30;99.90;;;;;;5125367;27;20226;-53
2022/08/24 00:15:11;;;;;;;3.93;3.83;;;16.30;99.90;;;;;;5126410;27;20215;-53
2022/08/24 00:17:39;;;;;;;4.50;4.20;;;16.30;99.90;;;;;;5119374;27;20274;-53
2022/08/24 00:20:08;;;;;;;4.43;4.23;;;16.40;99.90;;;;;;5129509;27;20215;-53
2022/08/24 00:22:35;;;;;;;4.30;4.00;;;16.30;99.90;;;;;;5127358;27;20195;-54
2022/08/24 00:25:02;;;;;;;4.83;4.50;;;16.20;99.90;;;;;;5125853;27;20326;-54
2022/08/24 00:27:29;;;;;;;4.27;4.03;;;16.20;99.90;;;;;;5134238;27;20252;-54
2022/08/24 00:29:57;;;;;;;3.73;3.63;;;16.20;99.90;;;;;;5133339;27;20679;-53
2022/08/24 00:32:28;;;;;;;4.50;4.20;;;16.10;99.90;;;;;;5120078;27;20299;-53
2022/08/24 00:34:55;;;;;;;3.80;3.63;;;16.10;99.90;;;;;;5121629;27;20246;-53
2022/08/24 00:37:23;;;;;;;3.93;3.63;;;16.10;99.90;;;;;;5125925;27;20200;-53
2022/08/24 00:39:49;;;;;;;4.03;3.70;;;16.00;99.90;;;;;;5121043;27;20223;-53
2022/08/24 00:42:17;;;;;;;3.63;3.43;;;16.00;99.90;;;;;;5117451;27;20199;-53
2022/08/24 00:44:44;;;;;;;4.07;3.77;;;16.00;99.90;;;;;;5131664;27;20569;-53
2022/08/24 00:47:16;;;;;;;3.87;3.67;;;15.90;99.90;;;;;;5129341;27;20199;-54
2022/08/24 00:49:53;;;;;;;4.30;4.20;;;15.90;99.90;;;;;;5127913;27;20203;-53
2022/08/24 00:52:24;;;;;;;4.00;3.90;;;15.90;99.90;;;;;;5132501;27;20255;-54
2022/08/24 00:54:54;;;;;;;3.80;3.50;;;15.90;99.90;;;;;;5131349;27;20291;-53
2022/08/24 00:57:27;;;;;;;3.83;3.73;;;15.90;99.90;;;;;;5131614;27;20195;-54
2022/08/24 00:59:58;;;;;;;3.83;3.73;;;15.90;99.90;;;;;;5128210;27;20209;-53
2022/08/24 01:02:29;;;;;;;3.90;3.63;;;15.90;99.90;;;;;;5133575;27;20227;-53
2022/08/24 01:05:00;;;;;;;4.50;4.20;;;15.90;99.90;;;;;;5123188;27;20574;-54
2022/08/24 01:07:29;;;;;;;3.97;3.87;;;15.90;99.90;;;;;;5132856;27;20214;-53
2022/08/24 01:10:01;;;;;;;4.57;4.20;;;15.80;99.90;;;;;;5133398;27;20290;-54
2022/08/24 01:12:30;;;;;;;3.77;3.47;;;15.80;99.90;;;;;;5131382;27;20244;-54
2022/08/24 01:14:59;;;;;;;5.63;4.83;;;15.70;99.90;;;;;;5131561;27;20279;-54
2022/08/24 01:20:14;;;;;;;4.50;4.30;;;15.70;99.90;;;;;;5133165;27;20214;-54
2022/08/24 01:22:58;;;;;;;3.67;3.57;;;15.60;99.90;;;;;;5133524;27;20248;-53
2022/08/24 01:25:28;;;;;;;3.53;3.43;;;15.60;99.90;;;;;;5133063;27;20230;-54
2022/08/24 01:27:59;;;;;;;3.97;3.77;;;15.60;99.90;;;;;;5123888;27;20611;-54
2022/08/24 01:30:27;;;;;;;3.90;3.80;;;15.70;99.90;;;;;;5130622;27;20230;-54
2022/08/24 01:32:55;;;;;;;3.40;3.30;;;15.80;99.90;;;;;;5123246;27;20231;-54
2022/08/24 01:35:22;;;;;;;4.53;4.27;;;15.80;99.90;;;;;;5132650;27;20219;-53
2022/08/24 01:37:50;;;;;;;4.70;4.50;;;15.80;99.90;;;;;;5132949;27;20225;-54
2022/08/24 01:40:19;;;;;;;4.17;3.97;;;15.80;99.90;;;;;;5128998;27;20267;-54
2022/08/24 01:42:53;;;;;;;4.17;3.97;;;15.70;99.90;;;;;;5133145;27;20195;-54
2022/08/24 01:45:20;;;;;;;4.17;3.97;;;15.70;99.90;;;;;;5127317;27;20225;-54
2022/08/24 01:47:47;;;;;;;4.10;3.97;;;15.70;99.90;;;;;;5132000;27;20203;-53
2022/08/24 01:50:15;;;;;;;4.23;3.93;;;15.60;99.90;;;;;;5132799;27;20215;-54
2022/08/24 01:52:43;;;;;;;5.60;5.10;;;15.60;99.90;;;;;;5127664;27;20282;-53
2022/08/24 01:55:13;;;;;;;3.83;3.63;;;15.50;99.90;;;;;;5135390;27;20283;-53
2022/08/24 01:57:40;;;;;;;4.40;4.20;;;15.50;99.90;;;;;;5136473;27;20198;-53
2022/08/24 02:00:13;;;;;;;3.87;3.77;;;15.60;99.90;;;;;;5134545;27;20195;-54
2022/08/24 02:02:42;;;;;;;4.57;4.17;;;15.50;99.90;;;;;;5136946;27;20199;-53
2022/08/24 02:05:10;;;;;;;3.93;3.83;;;15.50;99.90;;;;;;5128151;27;20247;-54
2022/08/24 02:07:37;;;;;;;3.70;3.60;;;15.40;99.90;;;;;;5135931;27;20191;-54
2022/08/24 02:10:06;;;;;;;3.40;3.20;;;15.40;99.90;;;;;;5133562;27;20198;-54
2022/08/24 02:12:33;;;;;;;4.40;4.23;;;15.30;99.90;;;;;;5132872;27;20657;-53
2022/08/24 02:15:01;;;;;;;3.70;3.60;;;15.20;99.90;;;;;;5119667;27;20223;-53
2022/08/24 02:17:29;;;;;;;4.07;3.80;;;15.20;99.90;;;;;;5123260;27;20561;-53
2022/08/24 02:19:56;;;;;;;4.93;4.53;;;15.10;99.90;;;;;;5133517;27;20224;-54
2022/08/24 02:22:23;;;;;;;5.77;4.60;;;15.10;99.90;;;;;;5137049;27;20263;-53
2022/08/24 02:24:50;;;;;;;5.20;4.80;;;15.10;99.90;;;;;;5132676;27;20200;-53
2022/08/24 02:27:18;;;;;;;5.97;4.83;;;15.00;99.90;;;;;;5135774;27;20244;-53
2022/08/24 02:29:45;;;;;;;5.53;4.20;;;15.00;99.90;;;;;;5134667;27;20203;-53
2022/08/24 02:32:13;;;;;;;4.20;4.10;;;14.90;99.90;;;;;;5132765;27;20264;-53
2022/08/24 02:34:42;;;;;;;5.73;5.33;;;14.90;99.90;;;;;;5125901;27;20206;-54
2022/08/24 02:37:09;;;;;;;3.83;3.63;;;14.80;99.90;;;;;;5136713;27;20219;-53
2022/08/24 02:39:36;;;;;;;4.00;3.63;;;14.80;99.90;;;;;;5127275;27;20740;-53
2022/08/24 02:42:04;;;;;;;6.67;3.90;;;14.80;99.90;;;;;;5134849;27;20795;-54
2022/08/24 02:44:31;;;;;;;5.47;5.07;;;14.80;99.90;;;;;;5134652;27;20199;-53
2022/08/24 02:46:59;;;;;;;7.73;4.23;;;14.80;99.90;;;;;;5136321;27;20637;-53
2022/08/24 02:49:26;;;;;;;4.93;4.53;;;14.70;99.90;;;;;;5136439;27;20195;-54
2022/08/24 02:51:55;;;;;;;4.60;4.40;;;14.70;99.90;;;;;;5136366;27;20289;-54
2022/08/24 02:54:22;;;;;;;4.43;4.23;;;14.60;99.90;;;;;;5129006;27;20227;-53
2022/08/24 02:56:50;;;;;;;5.47;5.17;;;14.70;99.90;;;;;;5129989;27;20252;-53
2022/08/24 02:59:18;;;;;;;4.80;4.60;;;14.70;99.90;;;;;;5135773;27;20207;-54
2022/08/24 03:01:45;;;;;;;4.77;4.57;;;14.80;99.90;;;;;;5136095;27;20274;-54
2022/08/24 03:04:12;;;;;;;6.10;4.97;;;14.80;99.90;;;;;;5135647;27;20245;-54
2022/08/24 03:06:39;;;;;;;4.50;4.20;;;14.80;99.90;;;;;;5135776;27;20219;-54
2022/08/24 03:09:08;;;;;;;4.97;4.67;;;14.70;99.90;;;;;;5128466;27;20240;-53
2022/08/24 03:11:36;;;;;;;6.10;5.67;;;14.70;99.90;;;;;;5133014;27;20193;-53
2022/08/24 03:14:03;;;;;;;5.63;5.17;;;14.70;99.90;;;;;;5114853;28;20199;-53
2022/08/24 03:16:31;;;;;;;5.93;5.13;;;14.60;99.90;;;;;;5115213;28;20231;-53
2022/08/24 03:18:58;;;;;;;4.50;4.23;;;14.60;99.90;;;;;;5115096;28;20635;-53
2022/08/24 03:21:26;;;;;;;5.47;5.17;;;14.60;99.90;;;;;;5114780;27;20315;-53
2022/08/24 03:23:53;;;;;;;5.10;4.90;;;14.60;99.90;;;;;;5133855;27;20196;-54
2022/08/24 03:26:21;;;;;;;4.60;4.40;;;14.60;99.90;;;;;;5131073;27;20308;-53
2022/08/24 03:28:49;;;;;;;4.67;4.40;;;14.60;99.90;;;;;;5133454;27;20291;-53
2022/08/24 03:31:17;;;;;;;4.90;4.70;;;14.60;99.90;;;;;;5129668;27;20214;-53
2022/08/24 03:33:44;;;;;;;6.57;6.07;;;14.50;99.90;;;;;;5120500;27;20669;-53
2022/08/24 03:36:11;;;;;;;4.60;4.30;;;14.50;99.90;;;;;;5114696;27;20215;-53
2022/08/24 03:38:38;;;;;;;5.20;4.70;;;14.50;99.90;;;;;;5114643;27;20569;-53
2022/08/24 03:41:05;;;;;;;4.90;4.60;;;14.50;99.90;;;;;;5115106;27;20268;-53
2022/08/24 03:43:45;;;;;;;5.33;5.10;;;14.40;99.90;;;;;;5117195;27;20661;-53
2022/08/24 03:46:14;;;;;;;6.23;5.73;;;14.40;99.90;;;;;;5129369;27;20565;-53
2022/08/24 03:48:43;;;;;;;5.00;4.80;;;14.40;99.90;;;;;;5117616;27;20253;-53
2022/08/24 03:51:13;;;;;;;5.13;4.87;;;14.30;99.90;;;;;;5125943;27;20202;-53
2022/08/24 03:53:40;;;;;;;4.57;4.37;;;14.30;99.90;;;;;;5133967;27;20248;-53
2022/08/24 03:56:08;;;;;;;5.67;5.37;;;14.20;99.90;;;;;;5114600;27;20576;-53
2022/08/24 03:58:37;;;;;;;5.30;4.80;;;14.20;99.90;;;;;;5119758;27;20257;-53
2022/08/24 04:01:05;;;;;;;5.50;5.20;;;14.20;99.90;;;;;;5115376;27;20650;-53
2022/08/24 04:03:35;;;;;;;5.80;5.30;;;14.20;99.90;;;;;;5114447;27;20188;-53
2022/08/24 04:06:02;;;;;;;4.43;4.03;;;14.20;99.90;;;;;;5133314;27;20207;-53
2022/08/24 04:08:30;;;;;;;4.37;4.07;;;14.20;99.90;;;;;;5120860;27;20196;-53
2022/08/24 04:10:57;;;;;;;5.23;4.30;;;14.30;99.90;;;;;;5114322;27;20188;-53
2022/08/24 04:13:24;;;;;;;4.50;4.27;;;14.40;99.90;;;;;;5113911;27;20191;-53
2022/08/24 04:15:52;;;;;;;4.17;3.87;;;14.40;99.90;;;;;;5120569;27;20231;-53
2022/08/24 04:18:20;;;;;;;4.07;3.97;;;14.40;99.90;;;;;;5114955;27;20221;-53
2022/08/24 04:20:47;;;;;;;4.63;4.43;;;14.40;99.90;;;;;;5115220;27;20199;-53
2022/08/24 04:23:15;;;;;;;5.00;4.67;;;14.40;99.90;;;;;;5117789;27;20191;-53
2022/08/24 04:25:43;;;;;;;4.90;4.60;;;14.40;99.90;;;;;;5117320;27;20303;-53
2022/08/24 04:28:12;;;;;;;4.63;4.33;;;14.30;99.90;;;;;;5113114;27;20196;-53
2022/08/24 04:30:41;;;;;;;5.97;5.50;;;14.30;99.90;;;;;;5119903;27;20639;-53
2022/08/24 04:33:10;;;;;;;5.37;4.73;;;14.30;99.90;;;;;;5113814;27;20283;-53
2022/08/24 04:35:39;;;;;;;4.90;4.67;;;14.20;99.90;;;;;;5113584;27;20705;-53
2022/08/24 04:38:09;;;;;;;5.20;4.90;;;14.20;99.90;;;;;;5114028;27;20203;-53
2022/08/24 04:40:39;;;;;;;4.73;4.40;;;14.10;99.90;;;;;;5113503;27;20196;-53
2022/08/24 04:43:07;;;;;;;5.50;5.13;;;14.10;99.90;;;;;;5130214;27;20727;-53
2022/08/24 04:45:38;;;;;;;4.53;4.43;;;14.10;99.90;;;;;;5125343;27;20310;-53
2022/08/24 04:48:06;;;;;;;6.07;5.53;;;14.00;99.90;;;;;;5125227;27;20196;-53
2022/08/24 04:50:36;;;;;;;5.20;4.80;;;14.00;99.90;;;;;;5133581;27;20605;-53
2022/08/24 04:53:04;;;;;;;5.37;5.10;;;14.10;99.90;;;;;;5133570;27;20230;-53
2022/08/24 04:55:31;;;;;;;5.13;4.63;;;14.10;99.90;;;;;;5123155;27;20212;-54
2022/08/24 04:57:58;;;;;;;6.27;5.83;;;14.20;99.90;;;;;;5123592;27;20211;-54
2022/08/24 05:00:26;;;;;;;6.70;6.10;;;14.20;99.90;;;;;;5115886;27;20195;-54
2022/08/24 05:02:53;;;;;;;6.43;5.83;;;14.30;99.90;;;;;;5114558;27;20755;-53
2022/08/24 05:05:20;;;;;;;5.40;5.20;;;14.50;99.90;;;;;;5115086;27;20215;-53
2022/08/24 05:07:49;;;;;;;5.20;5.00;;;14.50;99.90;;;;;;5112968;27;20204;-53
2022/08/24 05:10:16;;;;;;;5.83;5.43;;;14.60;99.90;;;;;;5126663;27;20206;-53
2022/08/24 05:12:43;;;;;;;6.47;5.93;;;14.60;99.90;;;;;;5133179;27;20194;-53
2022/08/24 05:15:11;;;;;;;5.63;5.33;;;14.70;99.90;;;;;;5121368;27;20220;-53
2022/08/24 05:17:39;;;;;;;6.97;6.47;;;14.80;99.90;;;;;;5112592;27;20264;-53
2022/08/24 05:20:08;;;;;;;6.77;6.33;;;14.90;99.90;;;;;;5128183;27;20195;-53
2022/08/24 05:22:36;;;;;;;7.17;6.60;;;15.00;99.90;;;;;;5112605;28;20216;-53
2022/08/24 05:25:05;;;;;;;6.93;6.53;;;15.10;99.90;;;;;;5112748;27;20702;-53
2022/08/24 05:27:33;;;;;;;7.60;6.93;;;15.20;99.90;;;;;;5112767;27;20245;-53
2022/08/24 05:30:02;;;;;;;6.90;6.40;;;15.60;99.90;;;;;;5112665;28;20282;-53
2022/08/24 05:32:29;;;;;;;5.97;5.50;;;16.40;99.90;;;;;;5112704;28;20285;-53
2022/08/24 05:34:56;;;;;;;7.73;6.10;;;17.50;99.90;;;;;;5124308;27;20695;-53
2022/08/24 05:37:23;;;;;;;5.63;5.00;;;18.30;99.90;;;;;;5116318;27;20252;-53
2022/08/24 05:39:50;;;;;;;4.93;4.70;;;19.20;99.90;;;;;;5113205;28;20223;-53
2022/08/24 05:42:19;;;;;;;6.43;5.73;;;19.90;99.90;;;;;;5112396;28;20693;-53
2022/08/24 05:44:46;;;;;;;5.50;5.20;;;20.40;99.90;;;;;;5114612;27;20199;-53
2022/08/24 05:47:13;;;;;;;5.13;4.87;;;20.90;99.90;;;;;;5121276;27;20192;-54
2022/08/24 05:49:40;;;;;;;5.23;4.93;;;21.40;99.90;;;;;;5118246;27;20192;-53
2022/08/24 05:52:07;;;;;;;4.40;4.10;;;22.00;99.90;;;;;;5121095;27;20260;-53
2022/08/24 05:54:34;;;;;;;5.07;4.77;;;22.70;99.90;;;;;;5115123;28;20264;-53
2022/08/24 05:57:03;;;;;;;4.40;4.10;;;23.30;99.90;;;;;;5112545;28;20223;-53
2022/08/24 05:59:32;;;;;;;4.03;3.83;;;24.10;99.90;;;;;;5112172;28;20253;-54
2022/08/24 06:01:59;;;;;;;4.80;4.40;;;24.80;99.90;;;;;;5112352;28;20239;-54
2022/08/24 06:04:26;;;;;;;4.23;3.93;;;25.50;99.90;;;;;;5111678;28;20194;-53
2022/08/24 06:06:53;;;;;;;4.30;3.37;;;26.10;99.90;;;;;;5121157;27;20219;-54
2022/08/24 06:09:22;;;;;;;3.58;3.40;;;26.60;99.90;;;;;;5117051;27;20608;-53
2022/08/24 06:11:49;;;;;;;4.20;3.90;;;27.10;99.90;;;;;;5111854;28;20569;-53
2022/08/24 06:14:18;;;;;;;3.93;3.73;;;27.50;99.90;;;;;;5111719;28;20223;-53
2022/08/24 06:16:47;;;;;;;3.73;3.43;;;27.90;99.90;;;;;;5111872;28;20215;-53
2022/08/24 06:19:16;;;;;;;4.00;3.70;;;28.40;99.90;;;;;;5111909;28;20283;-54
2022/08/24 06:21:45;;;;;;;5.45;3.67;;;28.80;99.90;;;;;;5112094;28;20251;-53
2022/08/24 06:24:14;;;;;;;3.97;3.78;;;28.60;99.90;;;;;;5116745;28;20215;-54
2022/08/24 06:29:26;;;;;;;4.28;3.88;;;29.20;99.60;;;;;;5119775;28;20198;-54
2022/08/24 06:31:55;;;;;;;4.20;3.80;;;29.50;98.90;;;;;;5122861;27;20629;-54
2022/08/24 06:34:24;;;;;;;3.92;3.50;;;29.70;98.30;;;;;;5118223;28;20264;-54
2022/08/24 06:36:51;;;;;;;3.13;3.03;;;29.90;97.30;;;;;;5125524;28;20307;-54
2022/08/24 06:39:18;;;;;;;3.42;3.22;;;29.70;96.90;;;;;;5126385;27;20618;-54
2022/08/24 06:41:45;;;;;;;4.80;3.28;;;30.20;96.10;;;;;;5120050;27;20250;-53
2022/08/24 06:44:12;;;;;;;2.83;2.60;;;30.40;95.30;;;;;;5112460;28;20200;-54
2022/08/24 06:46:40;;;;;;;3.45;3.25;;;30.80;94.80;;;;;;5113236;27;20216;-54
2022/08/24 06:49:08;;;;;;;3.72;3.47;;;31.00;94.60;;;;;;5120259;27;20286;-54
2022/08/24 06:51:35;;;;;;;3.60;3.30;;;31.00;94.00;;;;;;5111716;28;20196;-53
2022/08/24 06:54:02;;;;;;;3.53;3.33;;;31.30;93.80;;;;;;5130296;27;20623;-54
2022/08/24 06:56:29;;;;;;;3.15;2.95;;;31.30;94.00;;;;;;5111843;28;20219;-54
2022/08/24 06:58:56;;;;;;;3.88;3.28;;;31.30;93.70;;;;;;5124402;28;20775;-54
2022/08/24 07:01:27;;;;;;;2.50;2.40;;;31.70;92.80;;;;;;5120558;27;20601;-54
2022/08/24 07:03:54;;;;;;;2.65;2.55;;;31.90;92.20;;;;;;5129713;27;20226;-54
2022/08/24 07:06:23;;;;;;;3.80;3.30;;;32.10;91.90;;;;;;5127513;27;20211;-54
2022/08/24 07:08:51;;;;;;;3.15;2.95;;;32.40;90.60;;;;;;5127432;27;20231;-54
2022/08/24 07:11:19;;;;;;;2.60;2.50;;;32.60;90.40;;;;;;5134739;27;20199;-54
2022/08/24 07:13:47;;;;;;;2.67;2.45;;;32.50;90.30;;;;;;5122663;27;20191;-54
2022/08/24 07:16:15;;;;;;;2.17;2.17;;;32.20;90.10;;;;;;5128977;27;20724;-54
2022/08/24 07:18:42;;;;;;;2.42;2.22;;;32.10;89.10;;;;;;5131859;27;20203;-54
2022/08/24 07:21:09;;;;;;;2.70;2.60;;;32.30;90.00;;;;;;5134328;27;20719;-54
2022/08/24 07:23:38;;;;;;;5.55;2.72;;;32.00;90.10;;;;;;5130795;27;20211;-54
2022/08/24 07:26:06;;;;;;;2.47;2.38;;;32.00;90.00;;;;;;5134395;27;20250;-54
2022/08/24 07:28:36;;;;;;;2.60;2.40;;;31.70;89.70;;;;;;5129844;27;20198;-54
2022/08/24 07:31:03;;;;;;;2.22;2.13;;;31.20;91.00;;;;;;5128656;27;20199;-54
2022/08/24 07:33:30;;;;;;;2.75;2.45;;;31.70;88.20;;;;;;5133106;27;20245;-54
2022/08/24 07:35:58;;;;;;;2.20;2.10;;;32.10;88.90;;;;;;5125249;27;20215;-54
2022/08/24 07:38:25;;;;;;;2.47;2.38;;;32.30;85.80;;;;;;5118350;27;20227;-54
2022/08/24 07:40:53;;;;;;;1.83;1.80;;;32.70;84.00;;;;;;5131942;27;20203;-54
2022/08/24 07:43:21;;;;;;;2.58;2.38;;;32.40;85.20;;;;;;5127451;27;20247;-54
2022/08/24 07:45:49;;;;;;;2.95;2.30;;;32.50;86.00;;;;;;5124647;27;20285;-54
2022/08/24 07:48:16;;;;;;;2.67;2.58;;;32.50;84.80;;;;;;5123203;27;20286;-54
2022/08/24 07:50:44;;;;;;;2.67;2.08;;;32.70;85.90;;;;;;5124422;27;20213;-54
2022/08/24 07:53:13;;;;;;;2.10;2.00;;;32.20;84.90;;;;;;5127007;27;20213;-54
2022/08/24 07:55:40;;;;;;;2.13;2.13;;;32.20;83.70;;;;;;5128228;27;20219;-54
2022/08/24 07:58:10;;;;;;;3.13;2.05;;;32.70;80.70;;;;;;5117533;27;20286;-54
2022/08/24 08:00:37;;;;;;;2.55;2.35;;;32.70;81.20;;;;;;5115016;27;20224;-54
2022/08/24 08:03:07;;;;;;;2.25;2.15;;;32.20;80.90;;;;;;5117714;27;20214;-54
2022/08/24 08:05:40;;;;;;;2.20;2.15;;;32.40;85.20;;;;;;5118823;27;20229;-54
2022/08/24 08:08:07;;;;;;;3.38;2.75;;;32.60;85.60;;;;;;5133348;27;20545;-54
2022/08/24 08:10:34;;;;;;;2.15;2.15;;;32.80;83.50;;;;;;5133548;27;20195;-54
2022/08/24 08:13:02;;;;;;;2.60;2.40;;;32.80;83.30;;;;;;5117823;27;20196;-54
2022/08/24 08:15:31;;;;;;;3.03;2.30;;;32.80;84.40;;;;;;5114086;27;20638;-54
2022/08/24 08:17:59;;;;;;;2.15;2.08;;;33.10;79.70;;;;;;5115687;27;20199;-54
2022/08/24 08:20:26;;;;;;;1.90;1.83;;;32.80;79.80;;;;;;5117688;27;20284;-54
2022/08/24 08:25:37;;;;;;;2.15;2.05;;;33.10;80.90;;;;;;5130612;27;20214;-54
2022/08/24 08:28:06;;;;;;;1.88;1.85;;;32.80;78.00;;;;;;5133256;27;20231;-54
2022/08/24 08:30:34;;;;;;;2.13;2.13;;;32.70;81.90;;;;;;5118012;27;20256;-54
2022/08/24 08:33:05;;;;;;;2.50;2.22;;;32.70;81.00;;;;;;5125471;27;20713;-54
2022/08/24 08:35:32;;;;;;;2.20;2.10;;;32.40;81.50;;;;;;5122954;27;20280;-54
2022/08/24 08:38:00;;;;;;;2.75;2.65;;;32.50;81.10;;;;;;5121172;27;20198;-54
2022/08/24 08:40:39;;;;;;;2.33;2.22;;;32.20;82.20;;;;;;5116466;27;20199;-54
2022/08/24 08:43:18;;;;;;;2.85;2.65;;;32.40;79.90;;;;;;5126947;27;20203;-54
2022/08/24 08:46:07;;;;;;;2.22;2.22;;;32.50;78.30;;;;;;5119494;27;20223;-54
2022/08/24 08:49:03;;;;;;;1.73;1.73;;;31.90;80.90;;;;;;5120316;27;20203;-54
2022/08/24 08:52:15;;;;;;;2.92;2.83;;;32.20;81.80;;;;;;5115204;27;20664;-54
2022/08/24 08:54:49;;;;;;;2.05;2.05;;;32.50;82.00;;;;;;5112249;27;20230;-54
2022/08/24 08:57:32;;;;;;;2.47;2.28;;;32.20;78.90;;;;;;5119711;27;20609;-55
2022/08/24 09:00:09;;;;;;;2.33;2.22;;;32.70;79.10;;;;;;5115867;27;20226;-54
2022/08/24 09:03:07;;;;;;;2.50;2.40;;;32.50;78.80;;;;;;5112473;27;20307;-54
2022/08/24 09:06:03;;;;;;;6.53;4.13;;;31.50;85.20;;;;;;5125408;27;20268;-54
2022/08/24 09:08:44;;;;;;;3.53;3.42;;;31.10;91.00;;;;;;5097602;27;20738;-54
2022/08/24 09:11:22;;;;;;;4.15;3.80;;;31.30;91.30;;;;;;5131355;27;20668;-53
2022/08/24 09:14:09;;;;;;;4.00;3.83;;;31.80;90.70;;;;;;5118537;27;20206;-54
2022/08/24 09:16:50;;;;;;;4.82;4.70;;;31.60;91.90;;;;;;5112257;27;20215;-53
2022/08/24 09:19:35;;;;;;;4.80;4.53;;;30.20;93.10;;;;;;5127679;27;20270;-54
2022/08/24 09:22:09;;;;;;;4.88;4.47;;;29.80;94.40;;;;;;5111879;27;20195;-54
2022/08/24 09:25:02;;;;;;;5.78;5.40;;;29.70;94.70;;;;;;5111689;27;20264;-53
2022/08/24 09:27:40;;;;;;;6.32;5.82;;;29.70;95.60;;;;;;5123741;27;20195;-53
2022/08/24 09:30:12;;;;;;;7.35;6.95;;;29.30;96.40;;;;;;5125553;27;20248;-53
2022/08/24 09:32:59;;;;;;;5.25;4.80;;;28.50;96.80;;;;;;5117188;27;20191;-54
2022/08/24 09:35:34;;;;;;;6.63;6.07;;;28.80;97.60;;;;;;5111572;27;20235;-53
2022/08/24 09:38:16;;;;;;;8.23;7.55;;;29.20;96.80;;;;;;5111860;27;20203;-53
2022/08/24 09:41:02;;;;;;;5.65;5.45;;;29.30;97.00;;;;;;5127404;27;20199;-54
2022/08/24 09:43:52;;;;;;;6.07;5.78;;;29.70;96.50;;;;;;5115902;27;20207;-54
2022/08/24 09:47:01;;;;;;;6.55;5.90;;;30.40;96.00;;;;;;5117727;27;20219;-54
2022/08/24 09:49:49;;;;;;;6.85;5.10;;;29.80;96.00;;;;;;5127215;27;20187;-54
2022/08/24 09:52:49;;;;;;;3.35;3.25;;;29.40;95.00;;;;;;5113109;27;20203;-53
2022/08/24 09:55:58;;;;;;;3.22;3.13;;;29.60;94.60;;;;;;5098829;27;20218;-54
2022/08/24 09:58:42;;;;;;;4.35;3.90;;;29.50;95.00;;;;;;5124650;27;20214;-54
2022/08/24 10:01:15;;;;;;;3.13;2.92;;;30.00;92.80;;;;;;5120851;28;20206;-54
2022/08/24 10:04:01;;;;;;;4.32;2.80;;;30.60;93.50;;;;;;5126326;28;20234;-54
2022/08/24 10:06:38;;;;;;;2.85;2.65;;;30.70;90.90;;;;;;5130168;27;20219;-53
2022/08/24 10:09:30;;;;;;;2.80;2.70;;;31.00;91.60;;;;;;5123416;28;20664;-54
2022/08/24 10:12:06;;;;;;;3.05;2.95;;;31.30;92.70;;;;;;5131276;28;20214;-54
2022/08/24 10:14:56;;;;;;;3.45;3.25;;;31.70;90.90;;;;;;5131039;27;20538;-54
2022/08/24 10:17:37;;;;;;;3.28;3.17;;;31.80;90.60;;;;;;5123578;28;20537;-54
2022/08/24 10:20:12;;;;;;;3.25;3.10;;;31.70;90.70;;;;;;5123657;28;20729;-55
2022/08/24 10:23:10;;;;;;;2.78;2.67;;;32.20;88.10;;;;;;5129339;28;20626;-54
2022/08/24 10:25:42;;;;;;;3.00;2.85;;;32.50;88.10;;;;;;5129803;27;20244;-53
2022/08/24 10:28:44;;;;;;;2.97;2.83;;;31.60;90.70;;;;;;5130493;27;20574;-54
2022/08/24 10:31:14;;;;;;;3.10;2.80;;;31.00;89.50;;;;;;5119149;28;20573;-54
2022/08/24 10:33:56;;;;;;;2.28;2.28;;;31.00;89.40;;;;;;5127667;28;20248;-54
2022/08/24 10:37:05;;;;;;;2.50;2.40;;;31.40;90.00;;;;;;5127657;27;20218;-54
2022/08/24 10:39:54;;;;;;;3.22;3.03;;;31.80;88.30;;;;;;5108666;28;20204;-54
2022/08/24 10:46:15;;;;;;;2.30;2.30;;;32.20;89.90;;;;;;5115062;28;20745;-54
2022/08/24 10:49:33;;;;;;;3.22;3.05;;;31.50;92.20;;;;;;5115482;28;20226;-54
2022/08/24 10:52:37;;;;;;;3.20;3.10;;;30.90;89.80;;;;;;5047179;28;20206;-54
2022/08/24 10:55:19;;;;;;;2.83;2.70;;;31.00;90.30;;;;;;5050913;28;20222;-54
2022/08/24 10:57:56;;;;;;;3.50;3.28;;;31.10;90.40;;;;;;5115986;27;20291;-54
2022/08/24 11:00:27;;;;;;;3.25;3.10;;;30.60;90.90;;;;;;5132133;27;20250;-54
2022/08/24 11:03:09;;;;;;;3.30;3.00;;;30.20;92.30;;;;;;5134994;27;20199;-54
2022/08/24 11:05:41;;;;;;;3.03;2.83;;;30.30;93.00;;;;;;5134720;27;20206;-54
2022/08/24 11:08:12;;;;;;;3.03;2.92;;;29.80;92.50;;;;;;5133196;27;20217;-54
2022/08/24 11:10:40;;;;;;;2.90;2.80;;;29.30;91.70;;;;;;5120558;27;20196;-54
2022/08/24 11:13:21;;;;;;;2.50;2.40;;;29.30;92.50;;;;;;5115560;27;20200;-54
2022/08/24 11:15:50;;;;;;;3.00;2.45;;;29.20;94.10;;;;;;5114885;28;20247;-54
2022/08/24 11:18:19;;;;;;;3.00;2.80;;;29.20;93.00;;;;;;5114576;28;20215;-54
2022/08/24 11:20:48;;;;;;;2.55;2.45;;;29.00;94.30;;;;;;5114534;28;20203;-54
2022/08/24 11:23:19;;;;;;;4.05;3.47;;;28.90;95.20;;;;;;5114426;28;20219;-54
2022/08/24 11:25:56;;;;;;;2.92;2.67;;;28.80;95.50;;;;;;5114788;27;20227;-54
2022/08/24 11:28:29;;;;;;;2.58;2.47;;;28.50;94.00;;;;;;5117992;27;20218;-54
2022/08/24 11:30:56;;;;;;;5.07;2.85;;;28.40;95.20;;;;;;5130689;27;20274;-54
2022/08/24 11:33:29;;;;;;;2.90;2.70;;;28.50;93.30;;;;;;5117810;27;20188;-54
2022/08/24 11:35:58;;;;;;;2.85;2.75;;;28.30;95.60;;;;;;5115086;27;20212;-54
2022/08/24 11:38:27;;;;;;;2.92;2.83;;;28.20;96.60;;;;;;5114841;27;20199;-54
2022/08/24 11:41:02;;;;;;;2.40;2.40;;;28.20;94.40;;;;;;5114764;27;20196;-54
2022/08/24 11:43:41;;;;;;;2.47;2.38;;;28.00;94.20;;;;;;5116814;27;20223;-54
2022/08/24 11:46:17;;;;;;;3.15;2.90;;;28.00;94.30;;;;;;5115814;27;20215;-53
2022/08/24 11:48:55;;;;;;;2.50;2.47;;;28.10;96.70;;;;;;5134080;27;20615;-54
2022/08/24 11:51:34;;;;;;;2.00;2.00;;;27.90;97.10;;;;;;5127799;27;20210;-54
2022/08/24 11:54:09;;;;;;;3.25;2.13;;;27.90;95.30;;;;;;5126226;27;20195;-54
2022/08/24 11:56:44;;;;;;;2.58;2.47;;;27.90;96.80;;;;;;5134805;27;20229;-54
2022/08/24 11:59:21;;;;;;;2.20;2.10;;;27.70;95.70;;;;;;5129233;27;20276;-53
2022/08/24 12:01:53;;;;;;;2.70;2.42;;;27.60;96.30;;;;;;5119258;27;20195;-54
2022/08/24 12:04:38;;;;;;;2.08;1.85;;;27.50;97.20;;;;;;5120211;27;20303;-54
2022/08/24 12:07:19;;;;;;;2.08;1.98;;;27.60;98.00;;;;;;5114167;27;20700;-54
2022/08/24 12:10:10;;;;;;;4.10;2.17;;;27.60;97.30;;;;;;5114457;27;20622;-54
2022/08/24 12:12:45;;;;;;;2.10;1.98;;;27.40;96.80;;;;;;5130777;27;20860;-53
2022/08/24 12:15:17;;;;;;;2.33;2.22;;;27.10;95.30;;;;;;5126962;27;20247;-53
2022/08/24 12:17:49;;;;;;;1.98;1.92;;;27.00;95.70;;;;;;5116518;27;20207;-54
2022/08/24 12:20:26;;;;;;;2.17;2.03;;;27.10;96.00;;;;;;5124447;27;20218;-54
2022/08/24 12:22:57;;;;;;;1.60;1.50;;;27.30;96.70;;;;;;5119131;27;20282;-54
2022/08/24 12:28:17;;;;;;;1.83;1.73;;;27.40;93.80;;;;;;5119940;27;20198;-54
2022/08/24 12:30:46;;;;;;;1.50;1.45;;;27.10;95.50;;;;;;5129096;27;20203;-54
2022/08/24 12:33:14;;;;;;;3.83;1.88;;;26.80;96.10;;;;;;5120062;27;20191;-53
2022/08/24 12:35:47;;;;;;;2.33;1.92;;;26.80;95.10;;;;;;5123050;27;20765;-53
2022/08/24 12:38:19;;;;;;;2.35;2.25;;;26.80;96.00;;;;;;5125273;27;20692;-54
2022/08/24 12:40:53;;;;;;;1.88;1.73;;;26.80;95.90;;;;;;5120006;27;20223;-54
2022/08/24 12:43:27;;;;;;;1.70;1.70;;;26.90;97.30;;;;;;5113296;28;20203;-53
2022/08/24 12:45:58;;;;;;;1.60;1.50;;;26.90;95.00;;;;;;5113370;28;20301;-54
2022/08/24 12:48:31;;;;;;;2.45;1.60;;;26.90;95.60;;;;;;5124669;27;20289;-54
2022/08/24 12:51:18;;;;;;;1.35;1.35;;;27.10;96.90;;;;;;5116286;27;20563;-54
2022/08/24 12:54:04;;;;;;;1.63;1.52;;;27.10;96.30;;;;;;5128744;27;20195;-54
2022/08/24 12:56:55;;;;;;;1.80;1.70;;;27.10;96.60;;;;;;5113205;27;20215;-53
2022/08/24 12:59:25;;;;;;;1.73;1.63;;;27.20;97.20;;;;;;5113128;27;20578;-54
2022/08/24 13:02:02;;;;;;;1.50;1.50;;;27.10;95.80;;;;;;5113568;28;20191;-53
2022/08/24 13:04:39;;;;;;;1.63;1.63;;;27.10;96.10;;;;;;5112142;27;20240;-53
2022/08/24 13:07:11;;;;;;;1.75;1.65;;;27.10;95.70;;;;;;5125320;27;20218;-54
2022/08/24 13:09:41;;;;;;;1.88;1.42;;;26.90;96.20;;;;;;5133557;27;20248;-54
2022/08/24 13:12:45;;;;;;;1.20;1.20;;;26.90;96.20;;;;;;5125764;27;20236;-54
2022/08/24 13:15:42;;;;;;;1.75;1.65;;;26.90;96.70;;;;;;5132884;27;20687;-53
2022/08/24 13:18:49;;;;;;;2.25;1.80;;;26.90;97.00;;;;;;5112259;28;20245;-54
2022/08/24 13:21:32;;;;;;;2.83;1.38;;;26.90;96.60;;;;;;5113685;28;20199;-54
2022/08/24 13:24:47;;;;;;;1.83;1.73;;;26.90;97.10;;;;;;5117997;27;20280;-54
2022/08/24 13:27:55;;;;;;;2.22;1.15;;;27.10;96.70;;;;;;5115410;27;20665;-53
2022/08/24 13:30:49;;;;;;;2.35;1.95;;;27.10;94.70;;;;;;5082783;28;20200;-54